createdAt,value
2022-11-12T00:00:45.929Z,22.88
2022-11-12T00:03:13.046Z,24.03
2022-11-12T00:05:40.148Z,23.97
2022-11-12T00:08:08.726Z,23.80
2022-11-12T00:10:36.066Z,23.44
2022-11-12T00:13:03.145Z,23.15
2022-11-12T00:15:30.486Z,22.41
2022-11-12T00:17:57.677Z,23.39
2022-11-12T00:20:24.867Z,22.82
2022-11-12T00:22:51.885Z,22.52
2022-11-12T00:25:20.429Z,22.58
2022-11-12T00:27:47.506Z,22.12
2022-11-12T00:30:14.565Z,22.17
2022-11-12T00:32:41.786Z,22.68
2022-11-12T00:35:13.665Z,22.80
2022-11-12T00:37:41.325Z,22.74
2022-11-12T00:40:09.488Z,22.58
2022-11-12T00:42:38.007Z,22.36
2022-11-12T00:45:06.247Z,21.91
2022-11-12T00:47:33.326Z,22.98
2022-11-12T00:50:00.392Z,22.54
2022-11-12T00:52:27.466Z,22.17
2022-11-12T00:54:54.573Z,23.27
2022-11-12T00:57:21.607Z,22.93
2022-11-12T00:59:50.163Z,22.96
2022-11-12T01:02:17.216Z,21.86
2022-11-12T01:04:44.367Z,22.35
2022-11-12T01:07:11.518Z,23.07
2022-11-12T01:09:38.566Z,22.83
2022-11-12T01:12:05.726Z,22.92
2022-11-12T01:14:32.867Z,22.73
2022-11-12T01:17:01.402Z,22.15
2022-11-12T01:19:28.501Z,26.02
2022-11-12T01:21:55.525Z,26.65
2022-11-12T01:24:22.680Z,22.61
2022-11-12T01:26:49.878Z,21.95
2022-11-12T01:29:18.261Z,21.98
2022-11-12T01:31:45.282Z,22.70
2022-11-12T01:34:13.867Z,22.42
2022-11-12T01:36:40.926Z,22.68
2022-11-12T01:39:09.760Z,21.34
2022-11-12T01:41:39.552Z,21.66
2022-11-12T01:44:12.226Z,21.24
2022-11-12T01:46:51.588Z,20.89
2022-11-12T01:49:27.325Z,20.76
2022-11-12T01:52:01.645Z,21.32
2022-11-12T01:54:30.825Z,24.30
2022-11-12T01:56:59.580Z,25.36
2022-11-12T01:59:34.746Z,22.15
2022-11-12T02:02:02.108Z,21.70
2022-11-12T02:04:33.705Z,35.78
2022-11-12T02:07:03.181Z,20.62
2022-11-12T02:09:31.947Z,20.22
2022-11-12T02:12:00.538Z,20.60
2022-11-12T02:14:28.899Z,20.32
2022-11-12T02:16:56.238Z,21.18
2022-11-12T02:19:23.251Z,20.41
2022-11-12T02:21:51.768Z,20.85
2022-11-12T02:24:35.670Z,21.21
2022-11-12T02:27:04.872Z,20.73
2022-11-12T02:29:32.951Z,20.83
2022-11-12T02:32:00.051Z,20.44
2022-11-12T02:34:27.174Z,20.52
2022-11-12T02:36:55.590Z,20.67
2022-11-12T02:39:22.895Z,20.40
2022-11-12T02:41:50.002Z,20.83
2022-11-12T02:44:17.131Z,20.49
2022-11-12T02:46:44.230Z,19.93
2022-11-12T02:49:11.291Z,20.59
2022-11-12T02:51:38.331Z,19.97
2022-11-12T02:54:06.893Z,18.97
2022-11-12T02:56:34.550Z,19.19
2022-11-12T02:59:02.110Z,19.41
2022-11-12T03:01:29.218Z,19.30
2022-11-12T03:03:56.331Z,19.37
2022-11-12T03:06:23.425Z,19.13
2022-11-12T03:08:50.575Z,18.17
2022-11-12T03:11:19.124Z,18.08
2022-11-12T03:13:46.164Z,18.18
2022-11-12T03:16:13.244Z,19.31
2022-11-12T03:18:40.264Z,18.86
2022-11-12T03:21:07.727Z,19.46
2022-11-12T03:23:34.840Z,19.60
2022-11-12T03:26:05.165Z,18.97
2022-11-12T03:28:33.984Z,17.80
2022-11-12T03:31:01.705Z,17.82
2022-11-12T03:33:28.745Z,17.57
2022-11-12T03:35:55.860Z,16.86
2022-11-12T03:38:23.226Z,14.96
2022-11-12T03:40:50.482Z,8.14
2022-11-12T03:43:17.544Z,9.19
2022-11-12T03:45:46.139Z,9.52
2022-11-12T03:48:13.200Z,9.57
2022-11-12T03:50:40.242Z,9.46
2022-11-12T03:53:07.315Z,9.11
2022-11-12T03:55:34.534Z,8.85
2022-11-12T03:58:01.572Z,9.65
2022-11-12T04:00:29.972Z,9.60
2022-11-12T04:02:59.031Z,8.64
2022-11-12T04:05:27.177Z,9.44
2022-11-12T04:07:58.781Z,9.45
2022-11-12T04:10:25.844Z,9.44
2022-11-12T04:12:52.906Z,9.40
2022-11-12T04:15:19.960Z,9.17
2022-11-12T04:17:47.042Z,9.66
2022-11-12T04:20:15.876Z,9.91
2022-11-12T04:22:42.893Z,9.31
2022-11-12T04:25:10.040Z,8.88
2022-11-12T04:27:37.082Z,9.51
2022-11-12T04:30:05.319Z,10.01
2022-11-12T04:32:34.551Z,8.82
2022-11-12T04:35:01.987Z,8.83
2022-11-12T04:37:33.477Z,9.42
2022-11-12T04:40:00.476Z,9.24
2022-11-12T04:42:27.444Z,8.62
2022-11-12T04:44:54.503Z,8.52
2022-11-12T04:47:21.511Z,8.82
2022-11-12T04:49:48.596Z,9.18
2022-11-12T04:52:16.315Z,8.91
2022-11-12T04:54:44.823Z,8.19
2022-11-12T04:57:12.023Z,8.19
2022-11-12T04:59:39.191Z,8.15
2022-11-12T05:02:06.292Z,9.10
2022-11-12T05:04:33.333Z,10.51
2022-11-12T05:07:01.352Z,10.21
2022-11-12T05:09:29.931Z,9.87
2022-11-12T05:11:58.476Z,9.88
2022-11-12T05:14:25.577Z,8.88
2022-11-12T05:16:52.740Z,9.51
2022-11-12T05:19:19.846Z,9.52
2022-11-12T05:21:47.287Z,9.17
2022-11-12T05:24:27.744Z,9.11
2022-11-12T05:27:03.940Z,9.24
2022-11-12T05:29:31.159Z,8.55
2022-11-12T05:31:58.307Z,8.81
2022-11-12T05:34:25.991Z,9.59
2022-11-12T05:36:53.503Z,9.41
2022-11-12T05:39:20.590Z,9.24
2022-11-12T05:42:11.368Z,9.41
2022-11-12T05:44:36.795Z,9.41
2022-11-12T05:47:04.024Z,9.04
2022-11-12T05:49:31.125Z,9.40
2022-11-12T05:51:58.124Z,9.21
2022-11-12T05:54:25.191Z,9.13
2022-11-12T05:56:52.551Z,9.16
2022-11-12T05:59:19.641Z,9.24
2022-11-12T06:01:48.159Z,9.78
2022-11-12T06:04:16.484Z,9.34
2022-11-12T06:06:44.602Z,9.13
2022-11-12T06:09:11.759Z,9.38
2022-11-12T06:11:39.100Z,9.22
2022-11-12T06:14:06.260Z,8.85
2022-11-12T06:16:33.530Z,8.87
2022-11-12T06:19:02.096Z,9.83
2022-11-12T06:21:29.118Z,9.39
2022-11-12T06:23:59.143Z,10.13
2022-11-12T06:26:28.061Z,10.34
2022-11-12T06:28:56.391Z,10.41
2022-11-12T06:31:23.803Z,9.00
2022-11-12T06:33:51.460Z,8.57
2022-11-12T06:36:20.881Z,8.79
2022-11-12T06:38:48.610Z,8.39
2022-11-12T06:41:15.718Z,9.14
2022-11-12T06:43:42.866Z,8.52
2022-11-12T06:46:13.348Z,9.19
2022-11-12T06:48:41.320Z,8.77
2022-11-12T06:51:16.459Z,9.89
2022-11-12T06:53:45.139Z,10.26
2022-11-12T06:56:13.298Z,9.92
2022-11-12T06:58:40.800Z,10.47
2022-11-12T07:01:12.300Z,10.14
2022-11-12T07:03:41.020Z,9.46
2022-11-12T07:06:10.520Z,10.19
2022-11-12T07:08:38.493Z,11.04
2022-11-12T07:11:07.731Z,10.21
2022-11-12T07:13:36.306Z,10.41
2022-11-12T07:16:05.475Z,11.03
2022-11-12T07:18:34.831Z,10.95
2022-11-12T07:21:04.131Z,10.29
2022-11-12T07:23:33.593Z,10.63
2022-11-12T07:26:04.731Z,11.80
2022-11-12T07:28:33.591Z,11.23
2022-11-12T07:31:02.832Z,11.18
2022-11-12T07:33:30.953Z,10.93
2022-11-12T07:35:59.200Z,11.75
2022-11-12T07:38:28.368Z,10.75
2022-11-12T07:41:00.184Z,11.13
2022-11-12T07:43:27.527Z,12.27
2022-11-12T07:45:59.882Z,11.83
2022-11-12T07:48:27.698Z,12.11
2022-11-12T07:51:00.443Z,12.27
2022-11-12T07:53:27.725Z,12.82
2022-11-12T07:55:55.304Z,12.21
2022-11-12T07:58:23.472Z,13.62
2022-11-12T08:00:50.902Z,13.24
2022-11-12T08:03:19.841Z,13.80
2022-11-12T08:05:47.003Z,13.06
2022-11-12T08:08:14.206Z,13.15
2022-11-12T08:10:41.342Z,13.45
2022-11-12T08:13:08.661Z,13.10
2022-11-12T08:15:35.699Z,14.49
2022-11-12T08:18:02.797Z,14.51
2022-11-12T08:20:31.340Z,13.79
2022-11-12T08:23:00.836Z,13.86
2022-11-12T08:25:27.929Z,13.58
2022-11-12T08:27:58.469Z,13.30
2022-11-12T08:30:26.128Z,11.85
2022-11-12T08:32:57.994Z,10.51
2022-11-12T08:35:25.734Z,11.55
2022-11-12T08:37:58.128Z,11.84
2022-11-12T08:40:25.640Z,12.32
2022-11-12T08:42:58.415Z,14.45
2022-11-12T08:45:25.568Z,13.62
2022-11-12T08:47:52.657Z,14.03
2022-11-12T08:50:19.880Z,13.75
2022-11-12T08:52:46.875Z,12.84
2022-11-12T08:55:15.579Z,11.97
2022-11-12T08:57:44.554Z,11.89
2022-11-12T09:00:13.696Z,12.51
2022-11-12T09:02:40.793Z,12.69
2022-11-12T09:05:08.802Z,12.30
2022-11-12T09:07:49.546Z,12.49
2022-11-12T09:10:19.379Z,12.51
2022-11-12T09:12:51.562Z,12.48
2022-11-12T09:18:07.932Z,12.96
2022-11-12T09:20:35.120Z,11.12
2022-11-12T09:23:05.173Z,10.59
2022-11-12T09:25:33.835Z,11.02
2022-11-12T09:28:08.283Z,11.43
2022-11-12T09:30:36.109Z,11.80
2022-11-12T09:33:03.243Z,12.43
2022-11-12T09:35:30.713Z,11.90
2022-11-12T09:37:58.793Z,11.61
2022-11-12T09:40:57.380Z,11.52
2022-11-12T09:43:30.955Z,12.42
2022-11-12T09:46:27.101Z,11.63
2022-11-12T09:49:03.559Z,11.86
2022-11-12T09:51:34.220Z,11.67
2022-11-12T09:54:11.910Z,12.40
2022-11-12T09:56:39.005Z,11.78
2022-11-12T09:59:12.002Z,12.16
2022-11-12T10:01:50.913Z,11.54
2022-11-12T10:04:42.101Z,11.48
2022-11-12T10:07:20.791Z,12.61
2022-11-12T10:10:01.364Z,12.85
2022-11-12T10:12:42.598Z,12.94
2022-11-12T10:15:39.160Z,12.06
2022-11-12T10:18:13.603Z,12.15
2022-11-12T10:20:50.140Z,11.61
2022-11-12T10:23:22.543Z,12.21
2022-11-12T10:25:53.741Z,12.31
2022-11-12T10:28:28.956Z,12.02
2022-11-12T10:31:12.711Z,12.44
2022-11-12T10:33:39.902Z,12.26
2022-11-12T10:36:28.883Z,12.83
2022-11-12T10:38:56.281Z,11.52
2022-11-12T10:41:26.724Z,11.87
2022-11-12T10:43:56.261Z,12.27
2022-11-12T10:46:27.501Z,12.14
2022-11-12T10:48:58.202Z,11.90
2022-11-12T10:51:29.001Z,11.84
2022-11-12T10:53:56.700Z,11.87
2022-11-12T10:56:29.821Z,12.16
2022-11-12T10:59:15.043Z,11.18
2022-11-12T11:01:46.087Z,12.45
2022-11-12T11:04:27.657Z,12.29
2022-11-12T11:07:07.352Z,13.00
2022-11-12T11:09:34.996Z,12.79
2022-11-12T11:12:02.717Z,14.74
2022-11-12T11:14:34.998Z,12.91
2022-11-12T11:17:05.680Z,13.26
2022-11-12T11:19:37.760Z,13.24
2022-11-12T11:22:38.657Z,13.35
2022-11-12T11:25:21.433Z,13.71
2022-11-12T11:28:07.485Z,12.61
2022-11-12T11:30:47.285Z,13.35
2022-11-12T11:33:40.705Z,12.21
2022-11-12T11:36:21.592Z,12.10
2022-11-12T11:38:59.907Z,13.33
2022-11-12T11:41:53.211Z,12.88
2022-11-12T11:44:36.477Z,12.42
2022-11-12T11:47:21.346Z,12.56
2022-11-12T11:50:06.665Z,12.25
2022-11-12T11:52:44.727Z,12.80
2022-11-12T11:55:30.577Z,12.67
2022-11-12T11:58:11.750Z,11.99
2022-11-12T12:00:50.266Z,13.36
2022-11-12T12:03:22.079Z,13.55
2022-11-12T12:06:18.660Z,12.63
2022-11-12T12:09:03.540Z,13.68
2022-11-12T12:11:40.659Z,13.46
2022-11-12T12:14:30.955Z,12.39
2022-11-12T12:17:14.499Z,12.95
2022-11-12T12:20:01.498Z,12.59
2022-11-12T12:22:41.698Z,12.74
2022-11-12T12:25:15.859Z,12.01
2022-11-12T12:27:51.860Z,12.01
2022-11-12T12:30:21.442Z,11.96
2022-11-12T12:32:57.148Z,12.39
2022-11-12T12:35:31.906Z,12.36
2022-11-12T12:38:12.208Z,11.71
2022-11-12T12:40:47.317Z,11.81
2022-11-12T12:43:27.407Z,12.66
2022-11-12T12:45:58.286Z,12.17
2022-11-12T12:48:30.484Z,12.36
2022-11-12T12:50:58.168Z,12.85
2022-11-12T12:53:34.780Z,13.14
2022-11-12T12:56:04.605Z,12.78
2022-11-12T12:58:41.220Z,13.72
2022-11-12T13:01:27.203Z,13.58
2022-11-12T13:03:58.822Z,13.62
2022-11-12T13:06:30.080Z,18.80
2022-11-12T13:09:03.584Z,20.56
2022-11-12T13:11:53.902Z,21.06
2022-11-12T13:15:06.621Z,20.23
2022-11-12T13:17:51.183Z,19.55
2022-11-12T13:20:34.558Z,19.95
2022-11-12T13:23:02.480Z,19.53
2022-11-12T13:25:32.961Z,21.15
2022-11-12T13:28:08.224Z,21.48
2022-11-12T13:31:01.202Z,20.00
2022-11-12T13:33:32.689Z,19.33
2022-11-12T13:36:25.301Z,19.40
2022-11-12T13:38:56.487Z,19.05
2022-11-12T13:41:28.558Z,17.83
2022-11-12T13:43:57.390Z,18.25
2022-11-12T13:46:33.358Z,18.38
2022-11-12T13:49:04.418Z,18.49
2022-11-12T13:51:39.818Z,18.94
2022-11-12T13:54:33.343Z,18.67
2022-11-12T13:57:25.538Z,18.29
2022-11-12T14:00:20.979Z,16.67
2022-11-12T14:02:54.619Z,16.72
2022-11-12T14:05:25.122Z,19.29
2022-11-12T14:08:27.982Z,18.34
2022-11-12T14:11:16.762Z,18.19
2022-11-12T14:13:57.658Z,17.63
2022-11-12T14:16:38.010Z,17.56
2022-11-12T14:19:37.369Z,18.09
2022-11-12T14:22:15.650Z,17.54
2022-11-12T14:24:44.331Z,18.20
2022-11-12T14:27:34.171Z,17.44
2022-11-12T14:30:20.736Z,18.13
2022-11-12T14:32:51.429Z,17.85
2022-11-12T14:35:21.370Z,16.96
2022-11-12T14:37:52.973Z,17.66
2022-11-12T14:40:21.129Z,16.55
2022-11-12T14:42:48.531Z,16.82
2022-11-12T14:45:20.070Z,17.49
2022-11-12T14:47:49.993Z,17.40
2022-11-12T14:50:23.911Z,17.70
2022-11-12T14:52:58.693Z,18.55
2022-11-12T14:55:30.694Z,17.70
2022-11-12T14:57:58.972Z,17.86
2022-11-12T15:00:43.286Z,18.01
2022-11-12T15:03:17.829Z,17.43
2022-11-12T15:05:57.247Z,17.73
2022-11-12T15:08:35.670Z,17.31
2022-11-12T15:11:24.110Z,17.44
2022-11-12T15:13:54.789Z,17.71
2022-11-12T15:16:26.910Z,17.81
2022-11-12T15:19:16.403Z,18.02
2022-11-12T15:21:50.070Z,18.76
2022-11-12T15:24:24.690Z,18.59
2022-11-12T15:26:53.715Z,18.70
2022-11-12T15:29:31.335Z,18.82
2022-11-12T15:32:02.390Z,18.97
2022-11-12T15:34:33.170Z,18.41
2022-11-12T15:37:05.309Z,18.48
2022-11-12T15:39:39.829Z,18.54
2022-11-12T15:42:16.850Z,18.23
2022-11-12T15:44:45.530Z,18.19
2022-11-12T15:47:20.493Z,18.47
2022-11-12T15:49:48.930Z,19.14
2022-11-12T15:52:15.957Z,18.71
2022-11-12T15:54:43.169Z,19.85
2022-11-12T15:57:14.871Z,20.31
2022-11-12T15:59:42.370Z,20.06
2022-11-12T16:02:11.969Z,20.87
2022-11-12T16:04:40.529Z,20.06
2022-11-12T16:07:09.127Z,20.48
2022-11-12T16:09:36.312Z,21.05
2022-11-12T16:12:03.751Z,20.73
2022-11-12T16:14:31.392Z,20.38
2022-11-12T16:16:58.550Z,20.10
2022-11-12T16:19:25.610Z,19.95
2022-11-12T16:21:54.112Z,20.70
2022-11-12T16:24:21.170Z,20.94
2022-11-12T16:26:48.271Z,20.61
2022-11-12T16:29:16.890Z,20.18
2022-11-12T16:31:44.053Z,21.01
2022-11-12T16:34:11.772Z,21.27
2022-11-12T16:36:40.173Z,21.27
2022-11-12T16:39:11.794Z,21.76
2022-11-12T16:41:38.894Z,21.80
2022-11-12T16:44:05.989Z,21.10
2022-11-12T16:46:37.629Z,22.32
2022-11-12T16:49:04.789Z,22.65
2022-11-12T16:51:32.249Z,22.77
2022-11-12T16:53:59.471Z,24.02
2022-11-12T16:56:28.029Z,23.75
2022-11-12T16:58:55.171Z,22.54
2022-11-12T17:01:25.846Z,23.88
2022-11-12T17:03:54.512Z,23.30
2022-11-12T17:06:23.530Z,22.80
2022-11-12T17:08:54.553Z,22.99
2022-11-12T17:11:21.830Z,24.51
2022-11-12T17:13:50.369Z,22.53
2022-11-12T17:16:17.469Z,21.69
2022-11-12T17:18:44.512Z,21.84
2022-11-12T17:21:13.972Z,22.60
2022-11-12T17:23:41.571Z,21.09
2022-11-12T17:26:12.277Z,21.93
2022-11-12T17:28:39.349Z,22.68
2022-11-12T17:31:11.092Z,21.75
2022-11-12T17:33:39.850Z,21.97
2022-11-12T17:36:10.031Z,22.98
2022-11-12T17:38:37.255Z,24.31
2022-11-12T17:41:05.229Z,28.72
2022-11-12T17:43:33.450Z,23.92
2022-11-12T17:46:01.312Z,24.52
2022-11-12T17:48:30.590Z,25.12
2022-11-12T17:51:07.269Z,24.30
2022-11-12T17:53:34.592Z,24.55
2022-11-12T17:56:02.371Z,24.03
2022-11-12T17:58:30.230Z,24.45
2022-11-12T18:01:04.824Z,23.52
2022-11-12T18:03:33.510Z,23.88
2022-11-12T18:06:00.870Z,23.95
2022-11-12T18:08:28.149Z,24.24
2022-11-12T18:10:55.272Z,24.92
2022-11-12T18:13:22.473Z,27.49
2022-11-12T18:15:49.650Z,28.73
2022-11-12T18:18:16.790Z,23.76
2022-11-12T18:20:45.549Z,23.97
2022-11-12T18:23:12.611Z,23.60
2022-11-12T18:25:39.830Z,23.88
2022-11-12T18:28:07.829Z,23.84
2022-11-12T18:30:35.549Z,23.88
2022-11-12T18:33:02.610Z,23.79
2022-11-12T18:35:30.245Z,24.40
2022-11-12T18:37:59.849Z,24.60
2022-11-12T18:40:26.992Z,25.53
2022-11-12T18:42:54.130Z,23.77
2022-11-12T18:45:21.310Z,24.42
2022-11-12T18:47:48.572Z,24.13
2022-11-12T18:50:16.369Z,23.95
2022-11-12T18:52:43.430Z,23.91
2022-11-12T18:55:12.269Z,23.94
2022-11-12T18:57:39.309Z,23.21
2022-11-12T19:00:07.491Z,24.30
2022-11-12T19:02:34.616Z,24.10
2022-11-12T19:05:01.736Z,23.93
2022-11-12T19:07:28.830Z,23.99
2022-11-12T19:09:55.969Z,22.93
2022-11-12T19:12:24.588Z,23.82
2022-11-12T19:14:51.869Z,24.27
2022-11-12T19:17:19.012Z,24.51
2022-11-12T19:19:46.051Z,24.77
2022-11-12T19:22:13.175Z,28.67
2022-11-12T19:24:40.314Z,25.12
2022-11-12T19:27:07.334Z,24.31
2022-11-12T19:29:35.992Z,23.38
2022-11-12T19:32:03.056Z,24.55
2022-11-12T19:34:30.135Z,23.85
2022-11-12T19:37:26.857Z,23.38
2022-11-12T19:39:44.334Z,23.08
2022-11-12T19:42:11.432Z,23.05
2022-11-12T19:44:40.534Z,22.71
2022-11-12T19:47:07.574Z,22.10
2022-11-12T19:49:34.592Z,23.10
2022-11-12T19:52:01.654Z,23.29
2022-11-12T19:54:28.795Z,23.12
2022-11-12T19:56:57.216Z,23.20
2022-11-12T19:59:24.492Z,23.03
2022-11-12T20:01:53.285Z,23.19
2022-11-12T20:04:24.159Z,23.38
2022-11-12T20:06:51.687Z,23.41
2022-11-12T20:09:18.813Z,22.76
2022-11-12T20:11:45.872Z,23.77
2022-11-12T20:14:12.914Z,23.55
2022-11-12T20:16:39.954Z,14.52
2022-11-12T20:19:08.473Z,12.27
2022-11-12T20:21:35.514Z,14.50
2022-11-12T20:24:02.565Z,14.90
2022-11-12T20:26:29.619Z,15.24
2022-11-12T20:28:56.998Z,14.29
2022-11-12T20:31:24.016Z,14.08
2022-11-12T20:33:51.816Z,14.34
2022-11-12T20:36:23.041Z,14.63
2022-11-12T20:38:50.977Z,14.47
2022-11-12T20:41:19.916Z,18.20
2022-11-12T20:43:47.256Z,21.48
2022-11-12T20:46:14.945Z,22.73
2022-11-12T20:48:43.528Z,22.33
2022-11-12T20:51:28.972Z,21.93
2022-11-12T20:54:00.540Z,22.72
2022-11-12T20:56:30.574Z,22.09
2022-11-12T20:58:58.640Z,21.08
2022-11-12T21:01:27.447Z,20.98
2022-11-12T21:03:55.096Z,21.12
2022-11-12T21:06:25.516Z,21.21
2022-11-12T21:08:53.436Z,21.75
2022-11-12T21:11:22.976Z,20.68
2022-11-12T21:13:50.737Z,21.74
2022-11-12T21:16:17.916Z,21.66
2022-11-12T21:18:45.055Z,21.85
2022-11-12T21:21:14.298Z,22.02
2022-11-12T21:23:43.958Z,22.40
2022-11-12T21:26:13.274Z,22.45
2022-11-12T21:28:44.995Z,21.86
2022-11-12T21:31:14.456Z,23.87
2022-11-12T21:33:42.316Z,22.84
2022-11-12T21:36:15.823Z,29.04
2022-11-12T21:38:44.065Z,23.97
2022-11-12T21:41:15.756Z,21.50
2022-11-12T21:43:45.316Z,21.11
2022-11-12T21:46:14.630Z,20.57
2022-11-12T21:48:42.216Z,21.89
2022-11-12T21:51:11.336Z,21.81
2022-11-12T21:53:38.755Z,22.66
2022-11-12T21:56:08.435Z,28.37
2022-11-12T21:58:36.839Z,21.64
2022-11-12T22:01:10.674Z,20.64
2022-11-12T22:03:38.742Z,19.20
2022-11-12T22:06:07.016Z,20.18
2022-11-12T22:08:34.247Z,19.97
2022-11-12T22:11:02.467Z,19.96
2022-11-12T22:13:29.643Z,19.76
2022-11-12T22:15:57.193Z,19.24
2022-11-12T22:18:25.980Z,19.31
2022-11-12T22:20:57.042Z,19.21
2022-11-12T22:23:24.270Z,19.06
2022-11-12T22:25:52.208Z,18.88
2022-11-12T22:28:19.242Z,18.67
2022-11-12T22:30:46.303Z,18.60
2022-11-12T22:33:13.464Z,19.03
2022-11-12T22:35:42.182Z,18.52
2022-11-12T22:38:09.244Z,18.25
2022-11-12T22:40:36.323Z,17.97
2022-11-12T22:43:03.828Z,17.94
2022-11-12T22:45:32.257Z,18.48
2022-11-12T22:47:59.804Z,18.92
2022-11-12T22:50:26.974Z,19.07
2022-11-12T22:52:56.665Z,18.77
2022-11-12T22:55:23.722Z,18.41
2022-11-12T22:57:50.844Z,18.02
2022-11-12T23:00:27.846Z,17.56
2022-11-12T23:02:54.904Z,17.35
2022-11-12T23:05:21.965Z,17.31
2022-11-12T23:07:49.024Z,17.30
2022-11-12T23:10:17.724Z,18.67
2022-11-12T23:12:44.824Z,18.20
2022-11-12T23:15:11.964Z,17.80
2022-11-12T23:17:39.044Z,17.00
2022-11-12T23:20:07.383Z,16.74
2022-11-12T23:22:34.495Z,16.60
2022-11-12T23:25:01.635Z,15.61
2022-11-12T23:27:30.122Z,15.20
2022-11-12T23:29:57.166Z,14.91
2022-11-12T23:32:24.223Z,14.88
2022-11-12T23:34:51.306Z,15.08
2022-11-12T23:37:18.487Z,13.78
2022-11-12T23:39:45.582Z,13.43
2022-11-12T23:42:12.663Z,14.18
2022-11-12T23:44:41.264Z,13.47
2022-11-12T23:47:08.423Z,13.54
2022-11-12T23:49:35.542Z,13.52
2022-11-12T23:52:02.612Z,13.57
2022-11-12T23:54:29.681Z,15.31
2022-11-12T23:56:56.743Z,15.21
2022-11-12T23:59:23.825Z,15.76
